sensor_id;sensor_type;location;lat;lon;timestamp;P1;durP1;ratioP1;P2;durP2;ratioP2
22851;SDS011;11592;45.460;9.240;2022-09-09T00:04:31;12.25;;;8.77;;
22851;SDS011;11592;45.460;9.240;2022-09-09T00:09:35;19.05;;;9.82;;
22851;SDS011;11592;45.460;9.240;2022-09-09T00:12:17;18.10;;;9.57;;
22851;SDS011;11592;45.460;9.240;2022-09-09T00:14:59;20.48;;;10.30;;
22851;SDS011;11592;45.460;9.240;2022-09-09T00:17:57;18.90;;;9.93;;
22851;SDS011;11592;45.460;9.240;2022-09-09T00:20:30;13.77;;;9.93;;
22851;SDS011;11592;45.460;9.240;2022-09-09T00:23:24;15.45;;;10.23;;
22851;SDS011;11592;45.460;9.240;2022-09-09T00:26:03;14.60;;;9.30;;
22851;SDS011;11592;45.460;9.240;2022-09-09T00:28:39;14.63;;;9.20;;
22851;SDS011;11592;45.460;9.240;2022-09-09T00:31:23;19.38;;;10.50;;
22851;SDS011;11592;45.460;9.240;2022-09-09T00:33:54;16.83;;;10.55;;
22851;SDS011;11592;45.460;9.240;2022-09-09T00:36:24;16.63;;;10.77;;
22851;SDS011;11592;45.460;9.240;2022-09-09T00:38:56;14.65;;;10.15;;
22851;SDS011;11592;45.460;9.240;2022-09-09T00:49:40;17.70;;;10.15;;
22851;SDS011;11592;45.460;9.240;2022-09-09T00:58:02;22.23;;;12.95;;
22851;SDS011;11592;45.460;9.240;2022-09-09T01:00:35;20.65;;;12.07;;
22851;SDS011;11592;45.460;9.240;2022-09-09T01:06:02;20.67;;;12.15;;
22851;SDS011;11592;45.460;9.240;2022-09-09T01:11:23;22.35;;;12.85;;
22851;SDS011;11592;45.460;9.240;2022-09-09T01:17:20;30.30;;;13.00;;
22851;SDS011;11592;45.460;9.240;2022-09-09T01:28:16;22.25;;;13.85;;
22851;SDS011;11592;45.460;9.240;2022-09-09T01:30:48;20.15;;;12.57;;
22851;SDS011;11592;45.460;9.240;2022-09-09T01:33:16;18.27;;;12.77;;
22851;SDS011;11592;45.460;9.240;2022-09-09T01:38:35;19.23;;;12.25;;
22851;SDS011;11592;45.460;9.240;2022-09-09T01:41:03;24.55;;;13.32;;
22851;SDS011;11592;45.460;9.240;2022-09-09T01:43:30;18.00;;;12.38;;
22851;SDS011;11592;45.460;9.240;2022-09-09T01:45:58;20.38;;;13.02;;
22851;SDS011;11592;45.460;9.240;2022-09-09T01:48:27;21.85;;;12.40;;
22851;SDS011;11592;45.460;9.240;2022-09-09T01:50:54;24.92;;;13.07;;
22851;SDS011;11592;45.460;9.240;2022-09-09T01:53:21;20.88;;;13.50;;
22851;SDS011;11592;45.460;9.240;2022-09-09T02:07:02;19.58;;;13.65;;
22851;SDS011;11592;45.460;9.240;2022-09-09T02:09:38;24.13;;;13.70;;
22851;SDS011;11592;45.460;9.240;2022-09-09T02:12:13;24.88;;;13.90;;
22851;SDS011;11592;45.460;9.240;2022-09-09T02:14:46;19.15;;;13.48;;
22851;SDS011;11592;45.460;9.240;2022-09-09T02:17:22;21.45;;;14.88;;
22851;SDS011;11592;45.460;9.240;2022-09-09T02:20:03;19.95;;;13.25;;
22851;SDS011;11592;45.460;9.240;2022-09-09T02:22:34;20.08;;;13.57;;
22851;SDS011;11592;45.460;9.240;2022-09-09T02:25:06;27.80;;;14.38;;
22851;SDS011;11592;45.460;9.240;2022-09-09T02:27:36;21.27;;;14.55;;
22851;SDS011;11592;45.460;9.240;2022-09-09T02:30:03;20.27;;;13.77;;
22851;SDS011;11592;45.460;9.240;2022-09-09T02:32:31;21.73;;;14.85;;
22851;SDS011;11592;45.460;9.240;2022-09-09T02:35:03;24.70;;;14.18;;
22851;SDS011;11592;45.460;9.240;2022-09-09T02:37:36;22.85;;;15.13;;
22851;SDS011;11592;45.460;9.240;2022-09-09T02:40:06;24.40;;;15.07;;
22851;SDS011;11592;45.460;9.240;2022-09-09T02:42:38;29.77;;;17.50;;
22851;SDS011;11592;45.460;9.240;2022-09-09T02:45:10;25.98;;;17.42;;
22851;SDS011;11592;45.460;9.240;2022-09-09T02:50:17;29.35;;;17.83;;
22851;SDS011;11592;45.460;9.240;2022-09-09T02:58:15;23.48;;;14.75;;
22851;SDS011;11592;45.460;9.240;2022-09-09T03:00:47;30.45;;;17.30;;
22851;SDS011;11592;45.460;9.240;2022-09-09T03:03:15;27.95;;;18.42;;
22851;SDS011;11592;45.460;9.240;2022-09-09T03:05:44;25.35;;;17.38;;
22851;SDS011;11592;45.460;9.240;2022-09-09T03:08:11;28.92;;;17.60;;
22851;SDS011;11592;45.460;9.240;2022-09-09T03:10:39;30.08;;;18.27;;
22851;SDS011;11592;45.460;9.240;2022-09-09T03:13:06;23.52;;;16.80;;
22851;SDS011;11592;45.460;9.240;2022-09-09T03:15:34;28.38;;;17.95;;
22851;SDS011;11592;45.460;9.240;2022-09-09T03:18:01;28.85;;;18.67;;
22851;SDS011;11592;45.460;9.240;2022-09-09T03:20:28;26.08;;;17.58;;
22851;SDS011;11592;45.460;9.240;2022-09-09T03:22:56;28.13;;;18.15;;
22851;SDS011;11592;45.460;9.240;2022-09-09T03:25:25;29.65;;;16.77;;
22851;SDS011;11592;45.460;9.240;2022-09-09T03:27:52;23.90;;;16.13;;
22851;SDS011;11592;45.460;9.240;2022-09-09T03:30:24;26.33;;;16.25;;
22851;SDS011;11592;45.460;9.240;2022-09-09T03:32:52;25.40;;;16.80;;
22851;SDS011;11592;45.460;9.240;2022-09-09T03:35:19;28.83;;;19.17;;
22851;SDS011;11592;45.460;9.240;2022-09-09T03:37:45;30.33;;;17.55;;
22851;SDS011;11592;45.460;9.240;2022-09-09T03:40:12;24.50;;;15.95;;
22851;SDS011;11592;45.460;9.240;2022-09-09T03:42:40;24.58;;;16.52;;
22851;SDS011;11592;45.460;9.240;2022-09-09T03:45:07;29.52;;;17.58;;
22851;SDS011;11592;45.460;9.240;2022-09-09T03:47:36;32.58;;;17.27;;
22851;SDS011;11592;45.460;9.240;2022-09-09T03:50:04;27.75;;;17.85;;
22851;SDS011;11592;45.460;9.240;2022-09-09T03:52:38;27.80;;;18.35;;
22851;SDS011;11592;45.460;9.240;2022-09-09T03:55:06;27.90;;;16.83;;
22851;SDS011;11592;45.460;9.240;2022-09-09T03:57:34;29.23;;;17.63;;
22851;SDS011;11592;45.460;9.240;2022-09-09T04:00:03;28.40;;;17.23;;
22851;SDS011;11592;45.460;9.240;2022-09-09T04:02:31;34.53;;;17.20;;
22851;SDS011;11592;45.460;9.240;2022-09-09T04:04:58;24.83;;;17.40;;
22851;SDS011;11592;45.460;9.240;2022-09-09T04:07:25;26.73;;;18.30;;
22851;SDS011;11592;45.460;9.240;2022-09-09T04:09:54;27.25;;;16.70;;
22851;SDS011;11592;45.460;9.240;2022-09-09T04:12:21;26.35;;;16.98;;
22851;SDS011;11592;45.460;9.240;2022-09-09T04:14:48;28.63;;;17.13;;
22851;SDS011;11592;45.460;9.240;2022-09-09T04:17:15;27.35;;;16.27;;
22851;SDS011;11592;45.460;9.240;2022-09-09T04:19:42;29.90;;;16.83;;
22851;SDS011;11592;45.460;9.240;2022-09-09T04:22:08;36.00;;;18.52;;
22851;SDS011;11592;45.460;9.240;2022-09-09T04:24:35;25.55;;;18.10;;
22851;SDS011;11592;45.460;9.240;2022-09-09T04:27:02;29.65;;;17.40;;
22851;SDS011;11592;45.460;9.240;2022-09-09T04:29:29;27.70;;;16.20;;
22851;SDS011;11592;45.460;9.240;2022-09-09T04:31:56;31.17;;;15.70;;
22851;SDS011;11592;45.460;9.240;2022-09-09T04:34:22;25.10;;;15.00;;
22851;SDS011;11592;45.460;9.240;2022-09-09T04:36:49;27.52;;;15.45;;
22851;SDS011;11592;45.460;9.240;2022-09-09T04:39:17;22.33;;;14.80;;
22851;SDS011;11592;45.460;9.240;2022-09-09T04:41:46;22.85;;;15.00;;
22851;SDS011;11592;45.460;9.240;2022-09-09T04:44:13;30.73;;;17.92;;
22851;SDS011;11592;45.460;9.240;2022-09-09T04:46:40;23.00;;;14.38;;
22851;SDS011;11592;45.460;9.240;2022-09-09T04:49:07;22.02;;;13.98;;
22851;SDS011;11592;45.460;9.240;2022-09-09T04:51:40;24.90;;;15.43;;
22851;SDS011;11592;45.460;9.240;2022-09-09T04:54:06;28.98;;;15.63;;
22851;SDS011;11592;45.460;9.240;2022-09-09T04:56:33;24.23;;;15.38;;
22851;SDS011;11592;45.460;9.240;2022-09-09T04:59:00;28.42;;;16.35;;
22851;SDS011;11592;45.460;9.240;2022-09-09T05:01:28;24.30;;;16.60;;
22851;SDS011;11592;45.460;9.240;2022-09-09T05:03:55;25.23;;;15.95;;
22851;SDS011;11592;45.460;9.240;2022-09-09T05:06:22;26.90;;;15.60;;
22851;SDS011;11592;45.460;9.240;2022-09-09T05:08:49;32.00;;;17.50;;
22851;SDS011;11592;45.460;9.240;2022-09-09T05:13:44;29.10;;;16.92;;
22851;SDS011;11592;45.460;9.240;2022-09-09T05:16:12;32.00;;;16.48;;
22851;SDS011;11592;45.460;9.240;2022-09-09T05:18:40;28.30;;;17.73;;
22851;SDS011;11592;45.460;9.240;2022-09-09T05:21:09;30.92;;;16.70;;
22851;SDS011;11592;45.460;9.240;2022-09-09T05:23:41;29.65;;;16.92;;
22851;SDS011;11592;45.460;9.240;2022-09-09T05:26:09;31.98;;;18.50;;
22851;SDS011;11592;45.460;9.240;2022-09-09T05:28:42;28.20;;;16.33;;
22851;SDS011;11592;45.460;9.240;2022-09-09T05:31:09;25.58;;;15.32;;
22851;SDS011;11592;45.460;9.240;2022-09-09T05:33:41;22.67;;;14.70;;
22851;SDS011;11592;45.460;9.240;2022-09-09T05:36:10;22.73;;;15.55;;
22851;SDS011;11592;45.460;9.240;2022-09-09T05:38:41;22.85;;;15.20;;
22851;SDS011;11592;45.460;9.240;2022-09-09T05:41:08;22.35;;;15.10;;
22851;SDS011;11592;45.460;9.240;2022-09-09T05:43:37;20.95;;;14.82;;
22851;SDS011;11592;45.460;9.240;2022-09-09T05:46:05;29.77;;;15.75;;
22851;SDS011;11592;45.460;9.240;2022-09-09T05:48:38;26.83;;;15.20;;
22851;SDS011;11592;45.460;9.240;2022-09-09T05:51:07;19.85;;;13.52;;
22851;SDS011;11592;45.460;9.240;2022-09-09T05:53:36;24.45;;;14.40;;
22851;SDS011;11592;45.460;9.240;2022-09-09T05:56:05;24.80;;;15.55;;
22851;SDS011;11592;45.460;9.240;2022-09-09T05:58:34;22.05;;;15.02;;
22851;SDS011;11592;45.460;9.240;2022-09-09T06:01:08;24.98;;;15.70;;
22851;SDS011;11592;45.460;9.240;2022-09-09T06:03:37;21.67;;;14.02;;
22851;SDS011;11592;45.460;9.240;2022-09-09T06:06:09;22.83;;;15.23;;
22851;SDS011;11592;45.460;9.240;2022-09-09T06:08:39;30.58;;;16.73;;
22851;SDS011;11592;45.460;9.240;2022-09-09T06:11:12;26.08;;;15.30;;
22851;SDS011;11592;45.460;9.240;2022-09-09T06:13:41;27.33;;;16.17;;
22851;SDS011;11592;45.460;9.240;2022-09-09T06:16:08;24.65;;;16.23;;
22851;SDS011;11592;45.460;9.240;2022-09-09T06:18:39;21.52;;;14.98;;
22851;SDS011;11592;45.460;9.240;2022-09-09T06:21:08;27.85;;;15.82;;
22851;SDS011;11592;45.460;9.240;2022-09-09T06:23:40;24.88;;;14.98;;
22851;SDS011;11592;45.460;9.240;2022-09-09T06:26:11;22.52;;;15.02;;
22851;SDS011;11592;45.460;9.240;2022-09-09T06:28:44;21.65;;;13.70;;
22851;SDS011;11592;45.460;9.240;2022-09-09T06:31:14;22.83;;;12.57;;
22851;SDS011;11592;45.460;9.240;2022-09-09T06:33:54;14.75;;;11.00;;
22851;SDS011;11592;45.460;9.240;2022-09-09T06:36:23;20.15;;;10.25;;
22851;SDS011;11592;45.460;9.240;2022-09-09T06:38:52;16.95;;;10.32;;
22851;SDS011;11592;45.460;9.240;2022-09-09T06:41:19;19.52;;;10.80;;
22851;SDS011;11592;45.460;9.240;2022-09-09T06:43:47;20.17;;;11.82;;
22851;SDS011;11592;45.460;9.240;2022-09-09T06:46:18;16.90;;;9.60;;
22851;SDS011;11592;45.460;9.240;2022-09-09T06:48:46;12.73;;;7.70;;
22851;SDS011;11592;45.460;9.240;2022-09-09T06:51:19;10.60;;;5.93;;
22851;SDS011;11592;45.460;9.240;2022-09-09T06:53:51;10.85;;;5.03;;
22851;SDS011;11592;45.460;9.240;2022-09-09T06:58:57;4.70;;;2.60;;
22851;SDS011;11592;45.460;9.240;2022-09-09T07:01:27;2.75;;;2.20;;
22851;SDS011;11592;45.460;9.240;2022-09-09T07:03:57;5.93;;;2.30;;
22851;SDS011;11592;45.460;9.240;2022-09-09T07:06:28;10.57;;;3.22;;
22851;SDS011;11592;45.460;9.240;2022-09-09T07:08:58;3.70;;;2.20;;
22851;SDS011;11592;45.460;9.240;2022-09-09T07:11:31;7.72;;;2.58;;
22851;SDS011;11592;45.460;9.240;2022-09-09T07:13:59;4.13;;;3.15;;
22851;SDS011;11592;45.460;9.240;2022-09-09T07:16:27;5.43;;;3.85;;
22851;SDS011;11592;45.460;9.240;2022-09-09T07:18:55;8.70;;;3.65;;
22851;SDS011;11592;45.460;9.240;2022-09-09T07:21:25;9.18;;;3.65;;
22851;SDS011;11592;45.460;9.240;2022-09-09T07:23:53;8.88;;;3.60;;
22851;SDS011;11592;45.460;9.240;2022-09-09T07:26:22;8.10;;;3.08;;
22851;SDS011;11592;45.460;9.240;2022-09-09T07:28:51;5.18;;;3.17;;
22851;SDS011;11592;45.460;9.240;2022-09-09T07:31:19;7.78;;;3.20;;
22851;SDS011;11592;45.460;9.240;2022-09-09T07:33:47;7.00;;;3.00;;
22851;SDS011;11592;45.460;9.240;2022-09-09T07:36:24;9.07;;;2.95;;
22851;SDS011;11592;45.460;9.240;2022-09-09T07:38:59;3.97;;;2.60;;
22851;SDS011;11592;45.460;9.240;2022-09-09T07:43:57;7.00;;;2.40;;
22851;SDS011;11592;45.460;9.240;2022-09-09T07:46:25;14.10;;;2.38;;
22851;SDS011;11592;45.460;9.240;2022-09-09T07:48:53;8.57;;;2.80;;
22851;SDS011;11592;45.460;9.240;2022-09-09T07:53:55;12.18;;;1.98;;
22851;SDS011;11592;45.460;9.240;2022-09-09T07:56:26;18.00;;;1.90;;
22851;SDS011;11592;45.460;9.240;2022-09-09T07:58:55;3.13;;;1.50;;
22851;SDS011;11592;45.460;9.240;2022-09-09T08:01:26;6.60;;;1.30;;
22851;SDS011;11592;45.460;9.240;2022-09-09T08:04:03;3.75;;;1.70;;
22851;SDS011;11592;45.460;9.240;2022-09-09T08:06:32;4.95;;;1.60;;
22851;SDS011;11592;45.460;9.240;2022-09-09T08:09:04;7.05;;;1.50;;
22851;SDS011;11592;45.460;9.240;2022-09-09T08:11:32;3.88;;;1.38;;
22851;SDS011;11592;45.460;9.240;2022-09-09T08:14:04;5.05;;;1.40;;
22851;SDS011;11592;45.460;9.240;2022-09-09T08:16:34;2.78;;;1.30;;
22851;SDS011;11592;45.460;9.240;2022-09-09T08:19:03;3.85;;;1.52;;
22851;SDS011;11592;45.460;9.240;2022-09-09T08:21:31;4.15;;;1.50;;
22851;SDS011;11592;45.460;9.240;2022-09-09T08:23:59;2.72;;;1.50;;
22851;SDS011;11592;45.460;9.240;2022-09-09T08:26:28;9.40;;;1.73;;
22851;SDS011;11592;45.460;9.240;2022-09-09T08:28:57;5.10;;;1.40;;
22851;SDS011;11592;45.460;9.240;2022-09-09T08:33:58;4.47;;;1.30;;
22851;SDS011;11592;45.460;9.240;2022-09-09T08:36:27;5.20;;;1.33;;
22851;SDS011;11592;45.460;9.240;2022-09-09T08:38:56;3.22;;;1.38;;
22851;SDS011;11592;45.460;9.240;2022-09-09T08:43:50;3.15;;;1.20;;
22851;SDS011;11592;45.460;9.240;2022-09-09T08:46:32;3.90;;;1.30;;
22851;SDS011;11592;45.460;9.240;2022-09-09T08:51:41;3.35;;;1.27;;
22851;SDS011;11592;45.460;9.240;2022-09-09T08:54:08;2.60;;;1.27;;
22851;SDS011;11592;45.460;9.240;2022-09-09T08:56:36;1.90;;;1.15;;
22851;SDS011;11592;45.460;9.240;2022-09-09T08:59:02;4.88;;;1.33;;
22851;SDS011;11592;45.460;9.240;2022-09-09T09:01:45;4.78;;;1.08;;
22851;SDS011;11592;45.460;9.240;2022-09-09T09:12:41;2.92;;;1.00;;
22851;SDS011;11592;45.460;9.240;2022-09-09T09:15:11;4.20;;;0.77;;
22851;SDS011;11592;45.460;9.240;2022-09-09T09:17:55;2.85;;;1.20;;
22851;SDS011;11592;45.460;9.240;2022-09-09T09:20:29;4.45;;;2.45;;
22851;SDS011;11592;45.460;9.240;2022-09-09T09:23:23;3.67;;;0.95;;
22851;SDS011;11592;45.460;9.240;2022-09-09T09:25:53;3.25;;;1.23;;
22851;SDS011;11592;45.460;9.240;2022-09-09T09:28:25;1.58;;;1.00;;
22851;SDS011;11592;45.460;9.240;2022-09-09T09:31:02;5.95;;;0.98;;
22851;SDS011;11592;45.460;9.240;2022-09-09T09:38:37;3.53;;;0.90;;
22851;SDS011;11592;45.460;9.240;2022-09-09T09:41:39;2.53;;;0.82;;
22851;SDS011;11592;45.460;9.240;2022-09-09T09:44:22;1.42;;;0.88;;
22851;SDS011;11592;45.460;9.240;2022-09-09T09:47:07;2.90;;;1.00;;
22851;SDS011;11592;45.460;9.240;2022-09-09T09:49:51;2.42;;;1.00;;
22851;SDS011;11592;45.460;9.240;2022-09-09T09:52:23;1.77;;;1.37;;
22851;SDS011;11592;45.460;9.240;2022-09-09T09:54:55;1.63;;;0.80;;
22851;SDS011;11592;45.460;9.240;2022-09-09T09:57:26;1.13;;;0.60;;
22851;SDS011;11592;45.460;9.240;2022-09-09T10:00:15;2.53;;;0.80;;
22851;SDS011;11592;45.460;9.240;2022-09-09T10:02:44;1.48;;;1.00;;
22851;SDS011;11592;45.460;9.240;2022-09-09T10:08:00;2.30;;;1.17;;
22851;SDS011;11592;45.460;9.240;2022-09-09T10:13:52;5.00;;;1.15;;
22851;SDS011;11592;45.460;9.240;2022-09-09T10:19:40;3.35;;;0.80;;
22851;SDS011;11592;45.460;9.240;2022-09-09T10:27:52;1.23;;;1.00;;
22851;SDS011;11592;45.460;9.240;2022-09-09T10:30:47;4.85;;;0.57;;
22851;SDS011;11592;45.460;9.240;2022-09-09T10:36:25;2.95;;;0.90;;
22851;SDS011;11592;45.460;9.240;2022-09-09T10:39:04;2.88;;;0.70;;
22851;SDS011;11592;45.460;9.240;2022-09-09T10:47:32;2.17;;;0.82;;
22851;SDS011;11592;45.460;9.240;2022-09-09T10:50:25;2.45;;;1.42;;
22851;SDS011;11592;45.460;9.240;2022-09-09T10:56:15;2.05;;;0.98;;
22851;SDS011;11592;45.460;9.240;2022-09-09T10:58:46;2.55;;;0.95;;
22851;SDS011;11592;45.460;9.240;2022-09-09T11:01:28;7.70;;;1.20;;
22851;SDS011;11592;45.460;9.240;2022-09-09T11:04:05;3.17;;;0.88;;
22851;SDS011;11592;45.460;9.240;2022-09-09T11:06:47;6.75;;;1.10;;
22851;SDS011;11592;45.460;9.240;2022-09-09T11:09:19;3.97;;;1.10;;
22851;SDS011;11592;45.460;9.240;2022-09-09T11:11:54;4.55;;;0.93;;
22851;SDS011;11592;45.460;9.240;2022-09-09T11:14:30;2.20;;;0.93;;
22851;SDS011;11592;45.460;9.240;2022-09-09T11:17:05;3.13;;;1.10;;
22851;SDS011;11592;45.460;9.240;2022-09-09T11:19:39;3.88;;;1.00;;
22851;SDS011;11592;45.460;9.240;2022-09-09T11:27:31;2.65;;;1.30;;
22851;SDS011;11592;45.460;9.240;2022-09-09T11:30:14;5.68;;;1.30;;
22851;SDS011;11592;45.460;9.240;2022-09-09T11:33:11;4.35;;;2.00;;
22851;SDS011;11592;45.460;9.240;2022-09-09T11:41:51;3.80;;;1.00;;
22851;SDS011;11592;45.460;9.240;2022-09-09T11:44:19;4.68;;;1.08;;
22851;SDS011;11592;45.460;9.240;2022-09-09T11:46:56;1.92;;;0.90;;
22851;SDS011;11592;45.460;9.240;2022-09-09T11:49:27;4.03;;;1.00;;
22851;SDS011;11592;45.460;9.240;2022-09-09T11:52:41;1.90;;;0.90;;
22851;SDS011;11592;45.460;9.240;2022-09-09T11:55:10;1.48;;;0.98;;
22851;SDS011;11592;45.460;9.240;2022-09-09T11:57:56;3.72;;;1.10;;
22851;SDS011;11592;45.460;9.240;2022-09-09T12:00:35;2.78;;;1.10;;
22851;SDS011;11592;45.460;9.240;2022-09-09T12:03:08;5.10;;;1.63;;
22851;SDS011;11592;45.460;9.240;2022-09-09T12:06:29;5.63;;;1.27;;
22851;SDS011;11592;45.460;9.240;2022-09-09T12:09:08;7.43;;;1.20;;
22851;SDS011;11592;45.460;9.240;2022-09-09T12:11:43;1.20;;;1.08;;
22851;SDS011;11592;45.460;9.240;2022-09-09T12:19:40;2.85;;;1.20;;
22851;SDS011;11592;45.460;9.240;2022-09-09T12:22:15;3.20;;;1.30;;
22851;SDS011;11592;45.460;9.240;2022-09-09T12:24:59;3.67;;;1.48;;
22851;SDS011;11592;45.460;9.240;2022-09-09T12:30:53;1.77;;;0.90;;
22851;SDS011;11592;45.460;9.240;2022-09-09T12:33:35;3.53;;;1.33;;
22851;SDS011;11592;45.460;9.240;2022-09-09T12:36:05;3.30;;;1.02;;
22851;SDS011;11592;45.460;9.240;2022-09-09T12:38:39;2.13;;;1.02;;
22851;SDS011;11592;45.460;9.240;2022-09-09T12:41:21;3.88;;;1.27;;
22851;SDS011;11592;45.460;9.240;2022-09-09T12:43:49;8.85;;;1.65;;
22851;SDS011;11592;45.460;9.240;2022-09-09T12:46:36;2.97;;;1.20;;
22851;SDS011;11592;45.460;9.240;2022-09-09T12:52:12;2.33;;;1.23;;
22851;SDS011;11592;45.460;9.240;2022-09-09T12:54:47;2.33;;;1.30;;
22851;SDS011;11592;45.460;9.240;2022-09-09T12:57:16;3.13;;;1.10;;
22851;SDS011;11592;45.460;9.240;2022-09-09T12:59:43;2.38;;;1.30;;
22851;SDS011;11592;45.460;9.240;2022-09-09T13:02:18;3.28;;;1.40;;
22851;SDS011;11592;45.460;9.240;2022-09-09T13:04:51;3.38;;;1.20;;
22851;SDS011;11592;45.460;9.240;2022-09-09T13:07:19;3.15;;;1.20;;
22851;SDS011;11592;45.460;9.240;2022-09-09T13:09:47;5.22;;;1.35;;
22851;SDS011;11592;45.460;9.240;2022-09-09T13:12:19;7.75;;;1.95;;
22851;SDS011;11592;45.460;9.240;2022-09-09T13:14:49;3.25;;;1.38;;
22851;SDS011;11592;45.460;9.240;2022-09-09T13:17:24;2.10;;;1.10;;
22851;SDS011;11592;45.460;9.240;2022-09-09T13:19:55;1.85;;;1.17;;
22851;SDS011;11592;45.460;9.240;2022-09-09T13:25:02;3.50;;;1.17;;
22851;SDS011;11592;45.460;9.240;2022-09-09T13:28:01;5.22;;;1.27;;
22851;SDS011;11592;45.460;9.240;2022-09-09T13:30:33;3.97;;;1.13;;
22851;SDS011;11592;45.460;9.240;2022-09-09T13:35:35;2.25;;;1.15;;
22851;SDS011;11592;45.460;9.240;2022-09-09T13:38:16;3.13;;;1.30;;
22851;SDS011;11592;45.460;9.240;2022-09-09T13:43:31;7.80;;;2.10;;
22851;SDS011;11592;45.460;9.240;2022-09-09T13:46:23;3.65;;;1.38;;
22851;SDS011;11592;45.460;9.240;2022-09-09T13:51:37;5.30;;;1.30;;
22851;SDS011;11592;45.460;9.240;2022-09-09T13:54:06;2.42;;;1.50;;
22851;SDS011;11592;45.460;9.240;2022-09-09T13:56:36;3.38;;;1.15;;
22851;SDS011;11592;45.460;9.240;2022-09-09T13:59:05;2.97;;;1.35;;
22851;SDS011;11592;45.460;9.240;2022-09-09T14:01:36;1.63;;;1.00;;
22851;SDS011;11592;45.460;9.240;2022-09-09T14:04:05;3.47;;;1.10;;
22851;SDS011;11592;45.460;9.240;2022-09-09T14:06:33;5.53;;;1.20;;
22851;SDS011;11592;45.460;9.240;2022-09-09T14:09:10;4.65;;;1.27;;
22851;SDS011;11592;45.460;9.240;2022-09-09T14:11:39;3.67;;;1.52;;
22851;SDS011;11592;45.460;9.240;2022-09-09T14:14:06;2.58;;;1.20;;
22851;SDS011;11592;45.460;9.240;2022-09-09T14:16:33;4.10;;;1.33;;
22851;SDS011;11592;45.460;9.240;2022-09-09T14:19:00;5.57;;;1.98;;
22851;SDS011;11592;45.460;9.240;2022-09-09T14:21:27;3.63;;;1.40;;
22851;SDS011;11592;45.460;9.240;2022-09-09T14:23:54;5.55;;;1.52;;
22851;SDS011;11592;45.460;9.240;2022-09-09T14:26:24;4.93;;;1.30;;
22851;SDS011;11592;45.460;9.240;2022-09-09T14:28:51;6.90;;;1.85;;
22851;SDS011;11592;45.460;9.240;2022-09-09T14:31:21;3.88;;;1.40;;
22851;SDS011;11592;45.460;9.240;2022-09-09T14:33:48;4.10;;;2.03;;
22851;SDS011;11592;45.460;9.240;2022-09-09T14:36:16;12.63;;;6.80;;
22851;SDS011;11592;45.460;9.240;2022-09-09T14:38:43;6.40;;;2.35;;
22851;SDS011;11592;45.460;9.240;2022-09-09T14:41:10;3.80;;;1.30;;
22851;SDS011;11592;45.460;9.240;2022-09-09T14:43:39;7.85;;;1.48;;
22851;SDS011;11592;45.460;9.240;2022-09-09T14:46:06;2.65;;;1.55;;
22851;SDS011;11592;45.460;9.240;2022-09-09T14:48:34;1.98;;;1.30;;
22851;SDS011;11592;45.460;9.240;2022-09-09T14:51:09;1.73;;;1.10;;
22851;SDS011;11592;45.460;9.240;2022-09-09T14:53:36;3.35;;;1.52;;
22851;SDS011;11592;45.460;9.240;2022-09-09T14:56:04;2.90;;;1.35;;
22851;SDS011;11592;45.460;9.240;2022-09-09T14:58:39;4.35;;;1.40;;
22851;SDS011;11592;45.460;9.240;2022-09-09T15:01:08;3.13;;;1.25;;
22851;SDS011;11592;45.460;9.240;2022-09-09T15:03:37;6.55;;;1.30;;
22851;SDS011;11592;45.460;9.240;2022-09-09T15:06:09;2.80;;;1.38;;
22851;SDS011;11592;45.460;9.240;2022-09-09T15:08:41;4.68;;;1.70;;
22851;SDS011;11592;45.460;9.240;2022-09-09T15:11:10;2.88;;;1.50;;
22851;SDS011;11592;45.460;9.240;2022-09-09T15:13:38;2.80;;;1.42;;
22851;SDS011;11592;45.460;9.240;2022-09-09T15:16:15;3.00;;;1.65;;
22851;SDS011;11592;45.460;9.240;2022-09-09T15:18:44;6.20;;;2.10;;
22851;SDS011;11592;45.460;9.240;2022-09-09T15:21:13;2.92;;;1.55;;
22851;SDS011;11592;45.460;9.240;2022-09-09T15:23:45;4.78;;;1.70;;
22851;SDS011;11592;45.460;9.240;2022-09-09T15:26:14;13.38;;;3.35;;
22851;SDS011;11592;45.460;9.240;2022-09-09T15:28:41;5.32;;;1.50;;
22851;SDS011;11592;45.460;9.240;2022-09-09T15:33:53;3.50;;;1.33;;
22851;SDS011;11592;45.460;9.240;2022-09-09T15:39:00;7.57;;;1.30;;
22851;SDS011;11592;45.460;9.240;2022-09-09T15:41:29;3.45;;;1.25;;
22851;SDS011;11592;45.460;9.240;2022-09-09T15:43:57;3.65;;;1.40;;
22851;SDS011;11592;45.460;9.240;2022-09-09T15:49:05;4.32;;;1.50;;
22851;SDS011;11592;45.460;9.240;2022-09-09T15:51:32;1.88;;;1.08;;
22851;SDS011;11592;45.460;9.240;2022-09-09T15:54:15;1.77;;;1.17;;
22851;SDS011;11592;45.460;9.240;2022-09-09T15:56:44;2.15;;;1.08;;
22851;SDS011;11592;45.460;9.240;2022-09-09T15:59:16;6.03;;;1.70;;
22851;SDS011;11592;45.460;9.240;2022-09-09T16:01:43;3.88;;;1.75;;
22851;SDS011;11592;45.460;9.240;2022-09-09T16:04:10;3.17;;;1.50;;
22851;SDS011;11592;45.460;9.240;2022-09-09T16:06:37;3.53;;;1.35;;
22851;SDS011;11592;45.460;9.240;2022-09-09T16:09:06;2.50;;;1.35;;
22851;SDS011;11592;45.460;9.240;2022-09-09T16:11:34;5.05;;;1.50;;
22851;SDS011;11592;45.460;9.240;2022-09-09T16:14:03;6.60;;;1.50;;
22851;SDS011;11592;45.460;9.240;2022-09-09T16:16:31;6.47;;;1.95;;
22851;SDS011;11592;45.460;9.240;2022-09-09T16:18:59;4.38;;;1.60;;
22851;SDS011;11592;45.460;9.240;2022-09-09T16:22:02;6.35;;;1.63;;
22851;SDS011;11592;45.460;9.240;2022-09-09T16:24:21;4.25;;;1.70;;
22851;SDS011;11592;45.460;9.240;2022-09-09T16:26:51;3.88;;;1.67;;
22851;SDS011;11592;45.460;9.240;2022-09-09T16:29:19;3.83;;;1.70;;
22851;SDS011;11592;45.460;9.240;2022-09-09T16:31:47;3.45;;;1.60;;
22851;SDS011;11592;45.460;9.240;2022-09-09T16:34:15;6.15;;;2.00;;
22851;SDS011;11592;45.460;9.240;2022-09-09T16:36:44;5.72;;;1.67;;
22851;SDS011;11592;45.460;9.240;2022-09-09T16:39:12;2.33;;;1.60;;
22851;SDS011;11592;45.460;9.240;2022-09-09T16:41:40;2.95;;;1.55;;
22851;SDS011;11592;45.460;9.240;2022-09-09T16:44:08;4.25;;;2.15;;
22851;SDS011;11592;45.460;9.240;2022-09-09T16:46:37;4.28;;;1.63;;
22851;SDS011;11592;45.460;9.240;2022-09-09T16:49:09;4.43;;;1.70;;
22851;SDS011;11592;45.460;9.240;2022-09-09T16:51:39;5.60;;;2.00;;
22851;SDS011;11592;45.460;9.240;2022-09-09T16:54:08;4.72;;;2.10;;
22851;SDS011;11592;45.460;9.240;2022-09-09T16:56:36;2.55;;;1.48;;
22851;SDS011;11592;45.460;9.240;2022-09-09T16:59:11;4.28;;;1.67;;
22851;SDS011;11592;45.460;9.240;2022-09-09T17:01:40;3.85;;;1.58;;
22851;SDS011;11592;45.460;9.240;2022-09-09T17:04:10;2.13;;;1.60;;
22851;SDS011;11592;45.460;9.240;2022-09-09T17:06:46;2.33;;;1.60;;
22851;SDS011;11592;45.460;9.240;2022-09-09T17:09:17;2.22;;;1.30;;
22851;SDS011;11592;45.460;9.240;2022-09-09T17:11:45;4.53;;;1.50;;
22851;SDS011;11592;45.460;9.240;2022-09-09T17:14:14;3.47;;;1.55;;
22851;SDS011;11592;45.460;9.240;2022-09-09T17:16:42;5.22;;;2.00;;
22851;SDS011;11592;45.460;9.240;2022-09-09T17:19:10;2.92;;;1.60;;
22851;SDS011;11592;45.460;9.240;2022-09-09T17:21:37;4.38;;;1.40;;
22851;SDS011;11592;45.460;9.240;2022-09-09T17:24:25;5.20;;;1.75;;
22851;SDS011;11592;45.460;9.240;2022-09-09T17:26:54;5.13;;;1.70;;
22851;SDS011;11592;45.460;9.240;2022-09-09T17:29:21;3.75;;;1.70;;
22851;SDS011;11592;45.460;9.240;2022-09-09T17:31:48;4.18;;;1.58;;
22851;SDS011;11592;45.460;9.240;2022-09-09T17:34:15;2.63;;;1.40;;
22851;SDS011;11592;45.460;9.240;2022-09-09T17:36:41;2.78;;;1.50;;
22851;SDS011;11592;45.460;9.240;2022-09-09T17:39:08;3.60;;;1.90;;
22851;SDS011;11592;45.460;9.240;2022-09-09T17:41:38;5.05;;;1.85;;
22851;SDS011;11592;45.460;9.240;2022-09-09T17:44:06;2.20;;;1.70;;